sensor_id;sensor_type;location;lat;lon;timestamp;pressure;altitude;pressure_sealevel;temperature;humidity
76108;BME280;64834;52.516;10.528;2023-08-24T00:00:28;101193.78;;;16.29;94.22
76108;BME280;64834;52.516;10.528;2023-08-24T00:02:53;101195.94;;;16.17;94.46
76108;BME280;64834;52.516;10.528;2023-08-24T00:05:19;101187.75;;;16.11;93.39
76108;BME280;64834;52.516;10.528;2023-08-24T00:07:46;101194.44;;;16.24;93.57
76108;BME280;64834;52.516;10.528;2023-08-24T00:10:13;101191.31;;;16.34;93.39
76108;BME280;64834;52.516;10.528;2023-08-24T00:12:38;101192.34;;;16.37;92.08
76108;BME280;64834;52.516;10.528;2023-08-24T00:15:07;101188.25;;;16.45;91.78
76108;BME280;64834;52.516;10.528;2023-08-24T00:17:34;101182.28;;;16.50;91.44
76108;BME280;64834;52.516;10.528;2023-08-24T00:19:59;101181.63;;;16.55;90.64
76108;BME280;64834;52.516;10.528;2023-08-24T00:22:24;101178.22;;;16.59;90.32
76108;BME280;64834;52.516;10.528;2023-08-24T00:24:50;101171.81;;;16.53;91.28
76108;BME280;64834;52.516;10.528;2023-08-24T00:27:15;101167.59;;;16.58;90.26
76108;BME280;64834;52.516;10.528;2023-08-24T00:29:40;101169.31;;;16.56;91.13
76108;BME280;64834;52.516;10.528;2023-08-24T00:32:06;101172.78;;;16.55;91.63
76108;BME280;64834;52.516;10.528;2023-08-24T00:34:31;101169.59;;;16.63;90.14
76108;BME280;64834;52.516;10.528;2023-08-24T00:36:56;101173.97;;;16.63;89.92
76108;BME280;64834;52.516;10.528;2023-08-24T00:39:22;101171.00;;;16.54;90.21
76108;BME280;64834;52.516;10.528;2023-08-24T00:41:47;101166.47;;;16.51;91.00
76108;BME280;64834;52.516;10.528;2023-08-24T00:44:12;101166.47;;;16.51;90.25
76108;BME280;64834;52.516;10.528;2023-08-24T00:46:38;101166.84;;;16.38;91.34
76108;BME280;64834;52.516;10.528;2023-08-24T00:49:03;101164.38;;;16.42;91.04
76108;BME280;64834;52.516;10.528;2023-08-24T00:51:28;101163.41;;;16.40;91.98
76108;BME280;64834;52.516;10.528;2023-08-24T00:53:54;101169.19;;;16.30;92.57
76108;BME280;64834;52.516;10.528;2023-08-24T00:56:19;101161.44;;;16.35;92.13
76108;BME280;64834;52.516;10.528;2023-08-24T00:58:49;101160.53;;;16.34;92.59
76108;BME280;64834;52.516;10.528;2023-08-24T01:01:16;101161.91;;;16.25;93.18
76108;BME280;64834;52.516;10.528;2023-08-24T01:03:42;101158.06;;;16.16;93.53
76108;BME280;64834;52.516;10.528;2023-08-24T01:06:07;101162.06;;;16.07;93.98
76108;BME280;64834;52.516;10.528;2023-08-24T01:08:32;101155.94;;;16.08;95.09
76108;BME280;64834;52.516;10.528;2023-08-24T01:11:33;101157.72;;;16.09;94.66
76108;BME280;64834;52.516;10.528;2023-08-24T01:14:09;101161.34;;;16.11;93.70
76108;BME280;64834;52.516;10.528;2023-08-24T01:16:43;101162.25;;;16.11;94.27
76108;BME280;64834;52.516;10.528;2023-08-24T01:19:39;101155.09;;;16.09;94.00
76108;BME280;64834;52.516;10.528;2023-08-24T01:22:07;101158.25;;;16.00;95.35
76108;BME280;64834;52.516;10.528;2023-08-24T01:24:40;101166.00;;;15.96;95.64
76108;BME280;64834;52.516;10.528;2023-08-24T01:27:10;101156.47;;;15.99;95.59
76108;BME280;64834;52.516;10.528;2023-08-24T01:29:37;101153.13;;;16.03;95.24
76108;BME280;64834;52.516;10.528;2023-08-24T01:32:03;101151.44;;;16.05;94.62
76108;BME280;64834;52.516;10.528;2023-08-24T01:34:29;101160.22;;;16.04;94.78
76108;BME280;64834;52.516;10.528;2023-08-24T01:36:54;101151.63;;;16.10;94.57
76108;BME280;64834;52.516;10.528;2023-08-24T01:39:28;101145.63;;;16.14;92.92
76108;BME280;64834;52.516;10.528;2023-08-24T01:41:58;101141.25;;;16.14;93.46
76108;BME280;64834;52.516;10.528;2023-08-24T01:44:26;101142.63;;;16.05;93.61
76108;BME280;64834;52.516;10.528;2023-08-24T01:46:54;101151.13;;;15.98;95.30
76108;BME280;64834;52.516;10.528;2023-08-24T01:49:22;101141.53;;;16.00;94.23
76108;BME280;64834;52.516;10.528;2023-08-24T01:51:49;101155.28;;;15.91;94.51
76108;BME280;64834;52.516;10.528;2023-08-24T01:54:15;101150.75;;;15.88;95.97
76108;BME280;64834;52.516;10.528;2023-08-24T01:56:40;101145.41;;;15.87;94.84
76108;BME280;64834;52.516;10.528;2023-08-24T01:59:06;101141.72;;;15.83;94.72
76108;BME280;64834;52.516;10.528;2023-08-24T02:01:31;101136.78;;;15.70;95.76
76108;BME280;64834;52.516;10.528;2023-08-24T02:03:56;101139.38;;;15.69;95.96
76108;BME280;64834;52.516;10.528;2023-08-24T02:06:22;101134.22;;;15.72;96.31
76108;BME280;64834;52.516;10.528;2023-08-24T02:08:47;101138.66;;;15.73;95.74
76108;BME280;64834;52.516;10.528;2023-08-24T02:11:12;101127.91;;;15.68;96.70
76108;BME280;64834;52.516;10.528;2023-08-24T02:13:37;101128.03;;;15.71;96.88
76108;BME280;64834;52.516;10.528;2023-08-24T02:16:04;101126.22;;;15.70;96.74
76108;BME280;64834;52.516;10.528;2023-08-24T02:18:29;101136.31;;;15.59;97.45
76108;BME280;64834;52.516;10.528;2023-08-24T02:20:54;101121.25;;;15.57;98.34
76108;BME280;64834;52.516;10.528;2023-08-24T02:23:20;101132.78;;;15.59;98.17
76108;BME280;64834;52.516;10.528;2023-08-24T02:25:45;101127.72;;;15.63;97.65
76108;BME280;64834;52.516;10.528;2023-08-24T02:28:11;101118.91;;;15.63;97.45
76108;BME280;64834;52.516;10.528;2023-08-24T02:30:39;101119.78;;;15.63;96.73
76108;BME280;64834;52.516;10.528;2023-08-24T02:33:05;101122.63;;;15.68;95.23
76108;BME280;64834;52.516;10.528;2023-08-24T02:35:30;101117.47;;;15.71;96.52
76108;BME280;64834;52.516;10.528;2023-08-24T02:37:56;101111.25;;;15.69;95.51
76108;BME280;64834;52.516;10.528;2023-08-24T02:40:22;101117.31;;;15.67;96.13
76108;BME280;64834;52.516;10.528;2023-08-24T02:42:47;101117.00;;;15.60;96.67
76108;BME280;64834;52.516;10.528;2023-08-24T02:45:13;101114.97;;;15.53;97.10
76108;BME280;64834;52.516;10.528;2023-08-24T02:47:38;101110.38;;;15.49;97.58
76108;BME280;64834;52.516;10.528;2023-08-24T02:50:05;101112.63;;;15.40;97.98
76108;BME280;64834;52.516;10.528;2023-08-24T02:52:31;101114.16;;;15.35;98.39
76108;BME280;64834;52.516;10.528;2023-08-24T02:54:57;101120.06;;;15.29;98.28
76108;BME280;64834;52.516;10.528;2023-08-24T02:57:22;101117.59;;;15.13;99.66
76108;BME280;64834;52.516;10.528;2023-08-24T02:59:48;101114.09;;;14.93;100.00
76108;BME280;64834;52.516;10.528;2023-08-24T03:02:13;101122.34;;;14.81;100.00
76108;BME280;64834;52.516;10.528;2023-08-24T03:04:38;101120.53;;;14.80;100.00
76108;BME280;64834;52.516;10.528;2023-08-24T03:07:04;101122.63;;;14.68;100.00
76108;BME280;64834;52.516;10.528;2023-08-24T03:09:32;101128.22;;;14.56;100.00
76108;BME280;64834;52.516;10.528;2023-08-24T03:11:57;101120.25;;;14.55;100.00
76108;BME280;64834;52.516;10.528;2023-08-24T03:14:23;101121.22;;;14.57;100.00
76108;BME280;64834;52.516;10.528;2023-08-24T03:16:48;101115.81;;;14.54;100.00
76108;BME280;64834;52.516;10.528;2023-08-24T03:19:13;101116.44;;;14.68;100.00
76108;BME280;64834;52.516;10.528;2023-08-24T03:21:39;101113.69;;;14.65;100.00
76108;BME280;64834;52.516;10.528;2023-08-24T03:24:05;101119.63;;;14.61;100.00
76108;BME280;64834;52.516;10.528;2023-08-24T03:26:31;101114.72;;;14.68;100.00
76108;BME280;64834;52.516;10.528;2023-08-24T03:28:56;101110.34;;;14.69;100.00
76108;BME280;64834;52.516;10.528;2023-08-24T03:31:21;101117.63;;;14.74;99.38
76108;BME280;64834;52.516;10.528;2023-08-24T03:33:47;101120.25;;;14.74;98.63
76108;BME280;64834;52.516;10.528;2023-08-24T03:36:12;101121.72;;;14.68;97.99
76108;BME280;64834;52.516;10.528;2023-08-24T03:38:38;101118.19;;;14.67;98.47
76108;BME280;64834;52.516;10.528;2023-08-24T03:41:03;101114.66;;;14.67;97.68
76108;BME280;64834;52.516;10.528;2023-08-24T03:43:32;101120.88;;;14.69;97.28
76108;BME280;64834;52.516;10.528;2023-08-24T03:45:58;101117.41;;;14.70;96.87
76108;BME280;64834;52.516;10.528;2023-08-24T03:48:24;101115.88;;;14.75;97.92
76108;BME280;64834;52.516;10.528;2023-08-24T03:50:49;101111.13;;;14.66;97.84
76108;BME280;64834;52.516;10.528;2023-08-24T03:53:14;101110.78;;;14.59;98.86
76108;BME280;64834;52.516;10.528;2023-08-24T03:55:40;101107.16;;;14.56;99.35
76108;BME280;64834;52.516;10.528;2023-08-24T03:58:05;101108.88;;;14.56;98.55
76108;BME280;64834;52.516;10.528;2023-08-24T04:00:30;101112.13;;;14.50;98.95
76108;BME280;64834;52.516;10.528;2023-08-24T04:02:56;101105.13;;;14.51;98.98
76108;BME280;64834;52.516;10.528;2023-08-24T04:05:21;101104.16;;;14.49;99.19
76108;BME280;64834;52.516;10.528;2023-08-24T04:07:46;101099.72;;;14.48;99.41
76108;BME280;64834;52.516;10.528;2023-08-24T04:10:12;101101.81;;;14.55;100.00
76108;BME280;64834;52.516;10.528;2023-08-24T04:12:38;101107.19;;;14.58;99.82
76108;BME280;64834;52.516;10.528;2023-08-24T04:15:03;101106.41;;;14.59;99.81
76108;BME280;64834;52.516;10.528;2023-08-24T04:17:29;101113.81;;;14.48;100.00
76108;BME280;64834;52.516;10.528;2023-08-24T04:19:55;101118.38;;;14.52;100.00
76108;BME280;64834;52.516;10.528;2023-08-24T04:22:20;101109.78;;;14.56;99.11
76108;BME280;64834;52.516;10.528;2023-08-24T04:24:45;101111.66;;;14.59;99.43
76108;BME280;64834;52.516;10.528;2023-08-24T04:27:11;101118.44;;;14.54;99.60
76108;BME280;64834;52.516;10.528;2023-08-24T04:29:36;101126.13;;;14.49;100.00
76108;BME280;64834;52.516;10.528;2023-08-24T04:32:02;101121.97;;;14.54;100.00
76108;BME280;64834;52.516;10.528;2023-08-24T04:34:27;101119.56;;;14.59;99.87
76108;BME280;64834;52.516;10.528;2023-08-24T04:36:53;101129.28;;;14.60;100.00
76108;BME280;64834;52.516;10.528;2023-08-24T04:39:19;101128.50;;;14.63;100.00
76108;BME280;64834;52.516;10.528;2023-08-24T04:41:45;101141.66;;;14.63;100.00
76108;BME280;64834;52.516;10.528;2023-08-24T04:44:10;101141.94;;;14.69;99.55
76108;BME280;64834;52.516;10.528;2023-08-24T04:46:35;101141.22;;;14.71;98.94
76108;BME280;64834;52.516;10.528;2023-08-24T04:49:01;101139.66;;;14.76;99.43
76108;BME280;64834;52.516;10.528;2023-08-24T04:51:26;101126.44;;;14.75;99.77
76108;BME280;64834;52.516;10.528;2023-08-24T04:53:53;101130.94;;;14.77;99.97
76108;BME280;64834;52.516;10.528;2023-08-24T04:56:18;101142.50;;;14.81;99.98
76108;BME280;64834;52.516;10.528;2023-08-24T04:58:57;101141.97;;;14.88;99.25
76108;BME280;64834;52.516;10.528;2023-08-24T05:01:23;101143.84;;;14.91;99.07
76108;BME280;64834;52.516;10.528;2023-08-24T05:03:51;101136.22;;;14.97;99.23
76108;BME280;64834;52.516;10.528;2023-08-24T05:06:17;101139.81;;;14.99;99.35
76108;BME280;64834;52.516;10.528;2023-08-24T05:08:42;101147.94;;;15.03;99.30
76108;BME280;64834;52.516;10.528;2023-08-24T05:11:16;101152.91;;;15.17;98.43
76108;BME280;64834;52.516;10.528;2023-08-24T05:13:42;101163.00;;;15.27;97.49
76108;BME280;64834;52.516;10.528;2023-08-24T05:16:09;101160.00;;;15.38;97.67
76108;BME280;64834;52.516;10.528;2023-08-24T05:18:34;101162.16;;;15.47;97.59
76108;BME280;64834;52.516;10.528;2023-08-24T05:21:03;101158.38;;;15.61;96.86
76108;BME280;64834;52.516;10.528;2023-08-24T05:23:29;101166.91;;;15.75;96.97
76108;BME280;64834;52.516;10.528;2023-08-24T05:25:56;101164.94;;;15.90;97.45
76108;BME280;64834;52.516;10.528;2023-08-24T05:28:22;101150.00;;;15.91;96.69
76108;BME280;64834;52.516;10.528;2023-08-24T05:30:47;101148.66;;;16.02;97.38
76108;BME280;64834;52.516;10.528;2023-08-24T05:33:13;101152.34;;;16.06;96.76
76108;BME280;64834;52.516;10.528;2023-08-24T05:35:38;101145.09;;;16.23;96.78
76108;BME280;64834;52.516;10.528;2023-08-24T05:38:03;101142.88;;;16.33;96.57
76108;BME280;64834;52.516;10.528;2023-08-24T05:40:29;101140.91;;;16.50;95.44
76108;BME280;64834;52.516;10.528;2023-08-24T05:42:54;101152.00;;;16.64;94.45
76108;BME280;64834;52.516;10.528;2023-08-24T05:45:19;101148.06;;;16.75;94.34
76108;BME280;64834;52.516;10.528;2023-08-24T05:47:44;101139.88;;;16.91;93.94
76108;BME280;64834;52.516;10.528;2023-08-24T05:50:10;101134.09;;;17.03;94.22
76108;BME280;64834;52.516;10.528;2023-08-24T05:52:37;101136.69;;;17.02;93.42
76108;BME280;64834;52.516;10.528;2023-08-24T05:55:02;101144.75;;;17.05;93.77
76108;BME280;64834;52.516;10.528;2023-08-24T05:57:28;101155.47;;;17.09;94.02
76108;BME280;64834;52.516;10.528;2023-08-24T05:59:53;101146.88;;;17.15;92.98
76108;BME280;64834;52.516;10.528;2023-08-24T06:02:18;101149.59;;;17.16;92.87
76108;BME280;64834;52.516;10.528;2023-08-24T06:04:44;101153.19;;;17.18;94.00
76108;BME280;64834;52.516;10.528;2023-08-24T06:07:09;101152.72;;;17.30;93.83
76108;BME280;64834;52.516;10.528;2023-08-24T06:09:34;101151.41;;;17.43;93.45
76108;BME280;64834;52.516;10.528;2023-08-24T06:12:00;101151.88;;;17.57;92.51
76108;BME280;64834;52.516;10.528;2023-08-24T06:14:25;101136.94;;;17.59;92.27
76108;BME280;64834;52.516;10.528;2023-08-24T06:16:50;101136.06;;;17.58;92.95
76108;BME280;64834;52.516;10.528;2023-08-24T06:19:18;101136.53;;;17.46;94.15
76108;BME280;64834;52.516;10.528;2023-08-24T06:21:43;101130.69;;;17.55;94.28
76108;BME280;64834;52.516;10.528;2023-08-24T06:24:09;101134.44;;;17.62;93.57
76108;BME280;64834;52.516;10.528;2023-08-24T06:26:35;101124.63;;;17.59;93.24
76108;BME280;64834;52.516;10.528;2023-08-24T06:29:00;101121.94;;;17.58;93.14
76108;BME280;64834;52.516;10.528;2023-08-24T06:31:25;101124.56;;;17.58;94.08
76108;BME280;64834;52.516;10.528;2023-08-24T06:33:51;101121.97;;;17.59;93.82
76108;BME280;64834;52.516;10.528;2023-08-24T06:36:16;101112.28;;;17.60;94.33
76108;BME280;64834;52.516;10.528;2023-08-24T06:38:41;101096.34;;;17.58;94.81
76108;BME280;64834;52.516;10.528;2023-08-24T06:41:07;101114.03;;;17.59;93.76
76108;BME280;64834;52.516;10.528;2023-08-24T06:43:37;101123.69;;;17.57;94.91
76108;BME280;64834;52.516;10.528;2023-08-24T06:46:04;101128.31;;;17.64;95.71
76108;BME280;64834;52.516;10.528;2023-08-24T06:48:33;101125.16;;;17.73;94.87
76108;BME280;64834;52.516;10.528;2023-08-24T06:50:58;101120.66;;;17.72;94.49
76108;BME280;64834;52.516;10.528;2023-08-24T06:53:24;101111.38;;;17.59;95.15
76108;BME280;64834;52.516;10.528;2023-08-24T06:55:56;101109.59;;;17.58;95.46
76108;BME280;64834;52.516;10.528;2023-08-24T06:58:22;101105.88;;;17.53;95.26
76108;BME280;64834;52.516;10.528;2023-08-24T07:00:47;101101.19;;;17.44;98.11
76108;BME280;64834;52.516;10.528;2023-08-24T07:03:18;101101.66;;;17.58;96.66
76108;BME280;64834;52.516;10.528;2023-08-24T07:05:45;101098.97;;;17.82;95.90
76108;BME280;64834;52.516;10.528;2023-08-24T07:08:10;101083.19;;;17.85;94.33
76108;BME280;64834;52.516;10.528;2023-08-24T07:10:36;101071.09;;;17.93;93.63
76108;BME280;64834;52.516;10.528;2023-08-24T07:13:01;101065.09;;;17.99;94.50
76108;BME280;64834;52.516;10.528;2023-08-24T07:15:27;101079.81;;;18.18;95.15
76108;BME280;64834;52.516;10.528;2023-08-24T07:17:52;101075.22;;;18.71;92.89
76108;BME280;64834;52.516;10.528;2023-08-24T07:20:17;101078.81;;;18.73;91.71
76108;BME280;64834;52.516;10.528;2023-08-24T07:22:43;101078.75;;;18.71;91.08
76108;BME280;64834;52.516;10.528;2023-08-24T07:25:08;101078.78;;;19.04;89.85
76108;BME280;64834;52.516;10.528;2023-08-24T07:27:35;101076.78;;;19.27;87.93
76108;BME280;64834;52.516;10.528;2023-08-24T07:30:02;101073.59;;;19.74;85.90
76108;BME280;64834;52.516;10.528;2023-08-24T07:32:31;101082.59;;;20.18;83.68
76108;BME280;64834;52.516;10.528;2023-08-24T07:34:56;101082.97;;;20.76;81.19
76108;BME280;64834;52.516;10.528;2023-08-24T07:37:24;101077.53;;;21.15;77.82
76108;BME280;64834;52.516;10.528;2023-08-24T07:39:49;101075.78;;;21.65;76.62
76108;BME280;64834;52.516;10.528;2023-08-24T07:42:15;101074.25;;;21.79;73.97
76108;BME280;64834;52.516;10.528;2023-08-24T07:44:40;101069.19;;;21.98;74.36
76108;BME280;64834;52.516;10.528;2023-08-24T07:47:05;101075.81;;;22.21;73.62
76108;BME280;64834;52.516;10.528;2023-08-24T07:49:31;101076.78;;;22.28;71.94
76108;BME280;64834;52.516;10.528;2023-08-24T07:51:56;101064.53;;;22.44;71.52
76108;BME280;64834;52.516;10.528;2023-08-24T07:54:23;101065.47;;;22.47;70.64
76108;BME280;64834;52.516;10.528;2023-08-24T07:56:49;101058.75;;;22.80;71.71
76108;BME280;64834;52.516;10.528;2023-08-24T07:59:14;101050.38;;;23.24;70.31
76108;BME280;64834;52.516;10.528;2023-08-24T08:01:39;101038.84;;;23.31;67.53
76108;BME280;64834;52.516;10.528;2023-08-24T08:04:05;101047.22;;;23.69;66.76
76108;BME280;64834;52.516;10.528;2023-08-24T08:06:31;101053.53;;;23.77;67.44
76108;BME280;64834;52.516;10.528;2023-08-24T08:08:56;101055.22;;;23.66;66.33
76108;BME280;64834;52.516;10.528;2023-08-24T08:11:22;101040.19;;;23.82;65.79
76108;BME280;64834;52.516;10.528;2023-08-24T08:13:48;101045.44;;;23.63;64.69
76108;BME280;64834;52.516;10.528;2023-08-24T08:16:13;101044.63;;;23.78;65.04
76108;BME280;64834;52.516;10.528;2023-08-24T08:18:39;101038.53;;;23.96;65.82
76108;BME280;64834;52.516;10.528;2023-08-24T08:21:14;101040.50;;;24.28;63.10
76108;BME280;64834;52.516;10.528;2023-08-24T08:23:40;101038.78;;;24.42;62.40
76108;BME280;64834;52.516;10.528;2023-08-24T08:26:08;101039.81;;;24.74;61.54
76108;BME280;64834;52.516;10.528;2023-08-24T08:28:34;101039.84;;;24.78;60.17
76108;BME280;64834;52.516;10.528;2023-08-24T08:31:00;101035.47;;;25.09;57.77
76108;BME280;64834;52.516;10.528;2023-08-24T08:33:25;101030.94;;;25.00;59.32
76108;BME280;64834;52.516;10.528;2023-08-24T08:35:51;101037.25;;;25.13;58.93
76108;BME280;64834;52.516;10.528;2023-08-24T08:38:16;101042.50;;;24.82;59.35
76108;BME280;64834;52.516;10.528;2023-08-24T08:40:42;101046.06;;;24.80;58.36
76108;BME280;64834;52.516;10.528;2023-08-24T08:43:08;101037.16;;;24.79;58.25
76108;BME280;64834;52.516;10.528;2023-08-24T08:45:34;101030.09;;;25.07;57.82
76108;BME280;64834;52.516;10.528;2023-08-24T08:48:00;101024.75;;;25.45;57.05
76108;BME280;64834;52.516;10.528;2023-08-24T08:50:26;101017.63;;;25.72;55.34
76108;BME280;64834;52.516;10.528;2023-08-24T08:52:51;101025.66;;;26.02;54.71
76108;BME280;64834;52.516;10.528;2023-08-24T08:55:17;101021.19;;;25.97;55.00
76108;BME280;64834;52.516;10.528;2023-08-24T08:57:43;101026.41;;;26.33;54.38
76108;BME280;64834;52.516;10.528;2023-08-24T09:00:10;101018.50;;;25.97;55.08
76108;BME280;64834;52.516;10.528;2023-08-24T09:02:38;101026.59;;;25.78;55.33
76108;BME280;64834;52.516;10.528;2023-08-24T09:05:04;101027.47;;;25.73;57.00
76108;BME280;64834;52.516;10.528;2023-08-24T09:07:29;101033.72;;;25.96;55.54
76108;BME280;64834;52.516;10.528;2023-08-24T09:09:55;101024.69;;;26.28;54.87
76108;BME280;64834;52.516;10.528;2023-08-24T09:12:20;101026.41;;;26.38;54.93
76108;BME280;64834;52.516;10.528;2023-08-24T09:14:46;101022.91;;;26.18;53.35
76108;BME280;64834;52.516;10.528;2023-08-24T09:17:19;101015.66;;;26.50;53.18
76108;BME280;64834;52.516;10.528;2023-08-24T09:19:45;101020.16;;;26.47;51.38
76108;BME280;64834;52.516;10.528;2023-08-24T09:22:10;101018.31;;;26.59;52.00
76108;BME280;64834;52.516;10.528;2023-08-24T09:24:35;101018.22;;;26.78;51.37
76108;BME280;64834;52.516;10.528;2023-08-24T09:27:21;101023.59;;;26.70;52.02
76108;BME280;64834;52.516;10.528;2023-08-24T09:29:52;101025.69;;;25.84;52.67
76108;BME280;64834;52.516;10.528;2023-08-24T09:32:27;101027.47;;;25.54;53.71
76108;BME280;64834;52.516;10.528;2023-08-24T09:34:52;101027.47;;;25.76;54.56
76108;BME280;64834;52.516;10.528;2023-08-24T09:37:18;101017.59;;;25.95;54.33
76108;BME280;64834;52.516;10.528;2023-08-24T09:39:44;101021.09;;;26.26;53.77
76108;BME280;64834;52.516;10.528;2023-08-24T09:42:09;101022.84;;;26.27;53.19
76108;BME280;64834;52.516;10.528;2023-08-24T09:44:34;101011.09;;;26.69;53.76
76108;BME280;64834;52.516;10.528;2023-08-24T09:47:00;101015.38;;;26.96;50.51
76108;BME280;64834;52.516;10.528;2023-08-24T09:49:28;101007.56;;;26.58;50.31
76108;BME280;64834;52.516;10.528;2023-08-24T09:51:56;101010.09;;;26.85;50.73
76108;BME280;64834;52.516;10.528;2023-08-24T09:54:27;100995.72;;;26.97;49.11
76108;BME280;64834;52.516;10.528;2023-08-24T09:56:54;100988.47;;;27.08;50.44
76108;BME280;64834;52.516;10.528;2023-08-24T09:59:26;100984.78;;;27.25;49.93
76108;BME280;64834;52.516;10.528;2023-08-24T10:01:54;100993.66;;;27.34;48.08
76108;BME280;64834;52.516;10.528;2023-08-24T10:04:23;100982.03;;;27.31;46.80
76108;BME280;64834;52.516;10.528;2023-08-24T10:06:52;100973.25;;;27.09;48.21
76108;BME280;64834;52.516;10.528;2023-08-24T10:09:22;100956.22;;;27.08;48.15
76108;BME280;64834;52.516;10.528;2023-08-24T10:11:56;100947.31;;;27.09;48.33
76108;BME280;64834;52.516;10.528;2023-08-24T10:14:27;100948.88;;;27.35;47.90
76108;BME280;64834;52.516;10.528;2023-08-24T10:16:54;100950.31;;;27.69;46.61
76108;BME280;64834;52.516;10.528;2023-08-24T10:19:20;100948.56;;;27.64;48.53
76108;BME280;64834;52.516;10.528;2023-08-24T10:21:47;100948.97;;;27.23;46.58
76108;BME280;64834;52.516;10.528;2023-08-24T10:24:14;100936.47;;;27.17;49.35
76108;BME280;64834;52.516;10.528;2023-08-24T10:26:41;100938.03;;;27.42;46.31
76108;BME280;64834;52.516;10.528;2023-08-24T10:29:07;100938.69;;;27.69;46.60
76108;BME280;64834;52.516;10.528;2023-08-24T10:31:34;100938.56;;;27.80;45.65
76108;BME280;64834;52.516;10.528;2023-08-24T10:34:01;100926.59;;;27.19;46.06
76108;BME280;64834;52.516;10.528;2023-08-24T10:36:27;100915.16;;;26.89;49.57
76108;BME280;64834;52.516;10.528;2023-08-24T10:38:55;100913.66;;;27.58;51.00
76108;BME280;64834;52.516;10.528;2023-08-24T10:41:26;100898.16;;;27.86;46.73
76108;BME280;64834;52.516;10.528;2023-08-24T10:43:51;100892.47;;;28.10;46.48
76108;BME280;64834;52.516;10.528;2023-08-24T10:46:17;100900.63;;;28.04;47.01
76108;BME280;64834;52.516;10.528;2023-08-24T10:53:57;100892.41;;;28.13;45.79
76108;BME280;64834;52.516;10.528;2023-08-24T10:56:34;100886.66;;;28.41;46.50
76108;BME280;64834;52.516;10.528;2023-08-24T10:59:14;100889.25;;;27.81;45.17
76108;BME280;64834;52.516;10.528;2023-08-24T11:01:41;100887.59;;;27.69;45.37
76108;BME280;64834;52.516;10.528;2023-08-24T11:04:07;100882.38;;;27.51;46.05
76108;BME280;64834;52.516;10.528;2023-08-24T11:06:51;100884.00;;;27.70;48.61
76108;BME280;64834;52.516;10.528;2023-08-24T11:09:17;100876.84;;;27.64;46.34
76108;BME280;64834;52.516;10.528;2023-08-24T11:11:55;100874.38;;;27.45;46.83
76108;BME280;64834;52.516;10.528;2023-08-24T11:14:20;100869.59;;;27.76;46.22
76108;BME280;64834;52.516;10.528;2023-08-24T11:16:51;100867.75;;;27.78;45.84
76108;BME280;64834;52.516;10.528;2023-08-24T11:19:16;100874.75;;;27.94;46.43
76108;BME280;64834;52.516;10.528;2023-08-24T11:21:44;100871.09;;;27.98;44.90
76108;BME280;64834;52.516;10.528;2023-08-24T11:24:10;100873.94;;;27.84;45.90
76108;BME280;64834;52.516;10.528;2023-08-24T11:26:46;100866.38;;;27.38;46.78
76108;BME280;64834;52.516;10.528;2023-08-24T11:29:12;100859.69;;;27.78;47.24
76108;BME280;64834;52.516;10.528;2023-08-24T11:31:38;100858.72;;;27.85;46.78
76108;BME280;64834;52.516;10.528;2023-08-24T11:34:04;100864.94;;;27.88;46.01
76108;BME280;64834;52.516;10.528;2023-08-24T11:36:56;100869.28;;;28.00;46.02
76108;BME280;64834;52.516;10.528;2023-08-24T11:39:22;100866.94;;;27.73;46.07
76108;BME280;64834;52.516;10.528;2023-08-24T11:42:04;100860.19;;;28.09;47.18
76108;BME280;64834;52.516;10.528;2023-08-24T11:44:30;100856.94;;;28.50;45.74
76108;BME280;64834;52.516;10.528;2023-08-24T11:47:09;100851.75;;;28.93;44.23
76108;BME280;64834;52.516;10.528;2023-08-24T11:49:35;100844.59;;;28.35;45.10
76108;BME280;64834;52.516;10.528;2023-08-24T11:52:00;100844.66;;;28.28;45.19
76108;BME280;64834;52.516;10.528;2023-08-24T11:54:26;100850.13;;;28.82;45.28
76108;BME280;64834;52.516;10.528;2023-08-24T11:56:52;100849.78;;;29.52;43.94
76108;BME280;64834;52.516;10.528;2023-08-24T11:59:18;100834.94;;;29.75;43.12
76108;BME280;64834;52.516;10.528;2023-08-24T12:01:45;100820.63;;;29.25;42.66
76108;BME280;64834;52.516;10.528;2023-08-24T12:04:11;100816.75;;;28.90;43.59
76108;BME280;64834;52.516;10.528;2023-08-24T12:06:37;100808.13;;;29.21;44.09
76108;BME280;64834;52.516;10.528;2023-08-24T12:09:06;100816.84;;;28.86;44.39
76108;BME280;64834;52.516;10.528;2023-08-24T12:11:35;100811.47;;;28.86;44.84
76108;BME280;64834;52.516;10.528;2023-08-24T12:14:00;100808.13;;;29.21;44.78
76108;BME280;64834;52.516;10.528;2023-08-24T12:16:26;100795.72;;;29.12;44.18
76108;BME280;64834;52.516;10.528;2023-08-24T12:18:57;100790.91;;;28.79;43.22
76108;BME280;64834;52.516;10.528;2023-08-24T12:21:29;100788.22;;;28.79;43.29
76108;BME280;64834;52.516;10.528;2023-08-24T12:24:05;100787.31;;;28.80;42.95
76108;BME280;64834;52.516;10.528;2023-08-24T12:26:32;100778.13;;;28.90;43.34
76108;BME280;64834;52.516;10.528;2023-08-24T12:29:08;100776.19;;;28.48;43.69
76108;BME280;64834;52.516;10.528;2023-08-24T12:31:34;100770.34;;;28.74;44.92
76108;BME280;64834;52.516;10.528;2023-08-24T12:34:06;100776.31;;;28.39;45.19
76108;BME280;64834;52.516;10.528;2023-08-24T12:36:35;100775.66;;;28.22;43.96
76108;BME280;64834;52.516;10.528;2023-08-24T12:39:02;100768.09;;;28.50;44.71
76108;BME280;64834;52.516;10.528;2023-08-24T12:41:29;100764.88;;;28.79;43.74
76108;BME280;64834;52.516;10.528;2023-08-24T12:43:54;100764.63;;;28.94;43.19